Time;durP1;ratioP1;P1;durP2;ratioP2;P2;SDS_P1;SDS_P2;PMS_P1;PMS_P2;Temp;Humidity;BMP_temperature;BMP_pressure;BME280_temperature;BME280_humidity;BME280_pressure;Samples;Min_cycle;Max_cycle;Signal;HPM_P1;HPM_P2
2022/01/28 00:00:32;;;;;;;24.03;4.67;;;;;;;5.58;79.24;101758.44;5071476;28;20663;-73
2022/01/28 00:03:05;;;;;;;20.57;4.27;;;;;;;5.58;79.64;101770.28;5070196;28;20213;-73
2022/01/28 00:05:31;;;;;;;19.20;4.40;;;;;;;5.62;80.01;101784.91;5069725;28;20546;-73
2022/01/28 00:07:56;;;;;;;28.33;6.03;;;;;;;5.54;80.66;101783.63;5071125;28;20201;-73
2022/01/28 00:10:24;;;;;;;27.07;4.60;;;;;;;5.48;82.06;101793.44;5071090;28;20248;-73
2022/01/28 00:15:24;;;;;;;18.67;4.20;;;;;;;5.50;80.49;101795.28;5071237;28;20219;-73
2022/01/28 00:39:31;;;;;;;25.57;4.63;;;;;;;5.40;81.12;101828.59;5068417;28;20225;-73
2022/01/28 00:41:57;;;;;;;23.07;4.53;;;;;;;5.45;79.93;101841.53;5070577;28;20547;-74
2022/01/28 00:44:22;;;;;;;22.37;3.70;;;;;;;5.39;80.28;101842.03;5069480;28;20181;-73
2022/01/28 00:46:48;;;;;;;19.73;4.27;;;;;;;5.41;79.44;101837.06;5070556;28;20189;-73
2022/01/28 00:49:13;;;;;;;20.60;4.03;;;;;;;5.37;78.75;101842.75;5068643;28;20209;-73
2022/01/28 00:51:38;;;;;;;27.30;5.13;;;;;;;5.32;79.15;101861.94;5069018;28;20651;-73
2022/01/28 00:54:04;;;;;;;20.33;4.23;;;;;;;5.27;79.43;101864.22;5070461;28;20974;-73
2022/01/28 00:56:29;;;;;;;17.10;3.23;;;;;;;5.25;78.98;101863.25;5070351;28;20566;-73
2022/01/28 00:58:54;;;;;;;13.80;3.77;;;;;;;5.19;78.83;101870.53;5069922;28;20237;-73
2022/01/28 01:01:20;;;;;;;13.07;2.97;;;;;;;5.20;78.07;101871.41;5052239;28;20744;-73
2022/01/28 01:03:45;;;;;;;13.07;3.70;;;;;;;5.15;78.06;101881.28;5068926;28;20287;-73
2022/01/28 01:06:11;;;;;;;16.87;3.60;;;;;;;5.14;78.35;101877.00;5051749;28;20273;-73
2022/01/28 01:08:36;;;;;;;18.13;2.97;;;;;;;5.13;77.19;101890.50;5069841;28;20296;-73
2022/01/28 01:11:02;;;;;;;13.43;3.03;;;;;;;5.08;78.06;101880.84;5070059;28;20681;-73
2022/01/28 01:13:28;;;;;;;15.63;3.80;;;;;;;5.12;77.33;101896.38;5070339;28;20520;-73
2022/01/28 01:15:57;;;;;;;13.83;2.93;;;;;;;5.03;78.46;101887.31;5070356;28;20197;-73
2022/01/28 01:18:29;;;;;;;16.27;3.37;;;;;;;5.01;78.52;101910.06;5069687;28;20670;-73
2022/01/28 01:21:22;;;;;;;16.80;3.07;;;;;;;4.98;79.00;101912.41;5068857;28;20645;-73
2022/01/28 01:23:49;;;;;;;21.80;3.57;;;;;;;4.95;79.51;101914.81;5068435;28;20662;-73
2022/01/28 01:26:15;;;;;;;16.43;3.97;;;;;;;5.06;79.52;101910.34;5068980;28;20185;-73
2022/01/28 01:28:41;;;;;;;25.60;4.73;;;;;;;5.08;79.39;101922.34;5069803;28;20219;-73
2022/01/28 01:31:15;;;;;;;17.60;4.37;;;;;;;5.05;79.48;101912.00;5070153;28;20230;-73
2022/01/28 01:33:54;;;;;;;22.03;4.20;;;;;;;5.01;80.21;101935.44;5069965;28;20571;-73
2022/01/28 01:36:21;;;;;;;23.63;4.07;;;;;;;4.97;80.53;101947.88;5069963;28;20258;-73
2022/01/28 01:38:47;;;;;;;20.00;4.93;;;;;;;4.97;80.24;101930.97;5051494;28;20759;-73
2022/01/28 01:41:19;;;;;;;27.33;4.57;;;;;;;4.92;80.65;101932.38;5069955;28;20185;-73
2022/01/28 01:46:45;;;;;;;20.43;4.23;;;;;;;4.98;79.53;101957.25;5069586;28;20177;-73
2022/01/28 01:52:02;;;;;;;25.83;4.93;;;;;;;5.02;79.59;101971.88;5068689;28;20196;-73
2022/01/28 01:54:29;;;;;;;19.87;4.33;;;;;;;5.01;79.88;101976.06;5068201;28;20631;-73
2022/01/28 01:56:55;;;;;;;20.20;4.10;;;;;;;5.03;80.19;101966.88;5069593;28;20188;-73
2022/01/28 01:59:20;;;;;;;19.20;3.83;;;;;;;5.10;79.77;101974.06;5068969;28;20258;-73
2022/01/28 02:01:45;;;;;;;20.80;4.40;;;;;;;5.11;79.84;101969.88;5069391;28;20188;-73
2022/01/28 02:04:11;;;;;;;21.57;3.83;;;;;;;5.15;79.65;101981.97;5069573;28;20246;-73
2022/01/28 02:06:38;;;;;;;24.47;4.30;;;;;;;5.08;79.92;101995.06;5067915;28;20258;-73
2022/01/28 02:09:04;;;;;;;22.33;4.10;;;;;;;5.11;79.67;101974.94;5069106;28;20747;-73
2022/01/28 02:11:30;;;;;;;16.93;4.20;;;;;;;5.09;79.71;101984.13;5069324;28;20195;-73
2022/01/28 02:13:55;;;;;;;19.87;4.53;;;;;;;5.13;78.90;101980.97;5069375;28;20611;-73
2022/01/28 02:16:21;;;;;;;23.23;5.47;;;;;;;5.18;78.77;101980.47;5069383;28;20193;-73
2022/01/28 02:18:47;;;;;;;18.50;3.40;;;;;;;5.17;78.99;101976.19;5067547;28;20249;-73
2022/01/28 02:21:15;;;;;;;20.07;4.50;;;;;;;5.16;79.15;101996.41;5067917;28;20876;-73
2022/01/28 02:23:42;;;;;;;15.83;3.33;;;;;;;5.06;79.87;102010.19;5068397;28;20230;-73
2022/01/28 02:26:12;;;;;;;24.57;4.77;;;;;;;5.10;79.75;102012.13;5069598;28;20219;-73
2022/01/28 02:28:39;;;;;;;26.37;4.87;;;;;;;5.05;79.92;102018.59;5067904;28;20258;-73
2022/01/28 02:31:05;;;;;;;16.20;3.90;;;;;;;5.06;79.42;102012.72;5068875;28;20220;-73
2022/01/28 02:33:31;;;;;;;19.27;4.20;;;;;;;5.09;79.34;102034.88;5069277;28;20208;-73
2022/01/28 02:36:03;;;;;;;18.13;3.67;;;;;;;5.10;78.77;102023.94;5069353;28;20189;-73
2022/01/28 02:38:29;;;;;;;21.40;4.60;;;;;;;5.03;79.14;102027.78;5068805;28;20686;-73
2022/01/28 02:40:57;;;;;;;18.93;4.30;;;;;;;4.96;80.05;102032.38;5069143;28;20231;-73
2022/01/28 02:46:02;;;;;;;21.97;4.30;;;;;;;4.96;79.97;102040.88;5069088;28;20181;-73
2022/01/28 02:48:30;;;;;;;21.73;4.93;;;;;;;5.00;79.54;102052.09;5067601;28;20224;-73
2022/01/28 02:53:44;;;;;;;20.10;4.20;;;;;;;4.99;82.01;102069.00;5069290;28;20276;-73
2022/01/28 02:56:15;;;;;;;22.90;4.80;;;;;;;4.89;82.09;102063.25;5069106;28;20181;-73
2022/01/28 02:58:41;;;;;;;19.50;4.40;;;;;;;4.79;82.63;102082.09;5067353;28;20236;-73
2022/01/28 03:01:07;;;;;;;20.93;3.80;;;;;;;4.83;81.31;102081.50;5068954;28;20189;-73
2022/01/28 03:03:32;;;;;;;21.10;4.67;;;;;;;4.82;81.19;102079.75;5071212;28;20238;-73
2022/01/28 03:05:57;;;;;;;18.30;4.13;;;;;;;4.80;81.34;102077.91;5072424;28;20185;-73
2022/01/28 03:08:26;;;;;;;17.33;3.87;;;;;;;4.82;80.97;102077.22;5072224;28;20212;-73
2022/01/28 03:16:05;;;;;;;22.50;4.47;;;;;;;4.79;80.03;102087.16;5071137;28;20188;-73
2022/01/28 03:18:41;;;;;;;19.00;3.87;;;;;;;4.83;79.63;102090.78;5070610;28;20239;-73
2022/01/28 03:21:19;;;;;;;22.37;3.83;;;;;;;4.86;79.73;102098.56;5072403;28;20220;-73
2022/01/28 03:23:44;;;;;;;25.30;4.63;;;;;;;4.85;80.51;102094.28;5072194;28;20188;-73
2022/01/28 03:26:09;;;;;;;20.00;4.40;;;;;;;4.88;80.15;102099.56;5072102;28;20188;-73
2022/01/28 03:28:34;;;;;;;24.40;4.23;;;;;;;4.92;80.27;102096.44;5070708;28;20308;-73
2022/01/28 03:31:00;;;;;;;28.10;5.13;;;;;;;4.96;80.19;102109.41;5057999;28;20601;-73
2022/01/28 03:33:25;;;;;;;24.77;4.83;;;;;;;4.94;80.55;102103.38;5051959;28;20789;-73
2022/01/28 03:35:50;;;;;;;24.17;5.03;;;;;;;5.03;80.23;102113.19;5052067;28;20215;-73
2022/01/28 03:38:16;;;;;;;18.83;3.87;;;;;;;5.01;80.21;102109.69;5051682;28;20200;-73
2022/01/28 03:40:42;;;;;;;18.50;4.50;;;;;;;5.12;79.33;102123.91;5051775;28;20206;-73
2022/01/28 03:43:07;;;;;;;24.40;4.90;;;;;;;5.12;79.23;102127.34;5050698;28;20243;-73
2022/01/28 03:45:33;;;;;;;22.83;4.90;;;;;;;5.16;79.16;102121.63;5050571;28;20553;-73
2022/01/28 03:47:59;;;;;;;26.73;4.87;;;;;;;5.20;79.70;102128.66;5051638;28;20605;-73
2022/01/28 03:50:24;;;;;;;23.00;4.77;;;;;;;5.15;80.44;102150.34;5050373;28;20676;-73
2022/01/28 03:52:49;;;;;;;23.33;5.27;;;;;;;5.08;80.91;102149.88;5033862;28;20193;-73
2022/01/28 03:55:16;;;;;;;24.33;5.17;;;;;;;5.06;80.52;102162.47;5050374;28;20272;-73
2022/01/28 03:57:41;;;;;;;25.87;4.47;;;;;;;5.02;81.12;102170.66;5050191;28;20186;-74
2022/01/28 04:00:08;;;;;;;18.17;4.00;;;;;;;4.96;80.76;102156.72;5051246;28;20225;-73
2022/01/28 04:02:36;;;;;;;18.70;3.57;;;;;;;4.90;80.29;102171.56;5051652;28;20198;-73
2022/01/28 04:13:17;;;;;;;18.17;4.13;;;;;;;4.71;81.01;102186.41;5049934;28;20185;-73
2022/01/28 04:16:04;;;;;;;21.03;4.60;;;;;;;4.67;80.82;102187.00;5048988;28;20194;-73
2022/01/28 04:18:29;;;;;;;23.07;4.43;;;;;;;4.65;81.36;102193.63;5049411;28;20284;-73
2022/01/28 04:20:54;;;;;;;20.23;3.73;;;;;;;4.58;81.35;102202.50;5051117;28;20728;-73
2022/01/28 04:23:20;;;;;;;22.20;4.67;;;;;;;4.60;80.81;102211.06;5049764;28;20190;-73
2022/01/28 04:25:45;;;;;;;23.40;4.87;;;;;;;4.58;81.18;102202.50;5051146;28;20217;-73
2022/01/28 04:28:10;;;;;;;24.73;4.23;;;;;;;4.58;81.36;102220.25;5050653;28;20200;-73
2022/01/28 04:30:36;;;;;;;32.90;4.73;;;;;;;4.65;80.36;102224.94;5049561;28;20186;-73
2022/01/28 04:33:01;;;;;;;21.87;4.10;;;;;;;4.75;80.03;102221.34;5050830;28;20189;-73
2022/01/28 04:35:26;;;;;;;22.47;5.07;;;;;;;4.70;79.77;102231.19;5049475;28;20200;-73
2022/01/28 04:38:10;;;;;;;23.93;4.47;;;;;;;4.71;79.30;102227.00;5049348;28;20335;-73
2022/01/28 04:40:44;;;;;;;18.00;3.83;;;;;;;4.65;79.29;102251.97;5050529;28;20209;-73
2022/01/28 04:43:20;;;;;;;22.70;4.60;;;;;;;4.61;79.58;102250.00;5049493;28;20192;-73
2022/01/28 04:45:56;;;;;;;22.10;4.47;;;;;;;4.57;79.07;102246.41;5050619;28;20250;-73
2022/01/28 04:48:36;;;;;;;20.70;4.77;;;;;;;4.57;78.30;102256.53;5050263;28;20295;-73
2022/01/28 04:56:18;;;;;;;23.37;4.50;;;;;;;4.55;77.64;102260.63;5050522;28;20189;-73
2022/01/28 04:58:56;;;;;;;19.03;4.27;;;;;;;4.56;76.61;102264.91;5048637;28;20221;-73
2022/01/28 05:01:48;;;;;;;18.20;4.00;;;;;;;4.56;75.82;102274.19;5049017;28;20192;-73
2022/01/28 05:07:22;;;;;;;20.57;3.47;;;;;;;4.47;76.38;102287.13;5049870;28;20285;-73
2022/01/28 05:28:45;;;;;;;19.90;4.47;;;;;;;4.48;76.14;102324.41;5048180;28;20295;-73
2022/01/28 05:31:11;;;;;;;15.77;3.93;;;;;;;4.64;74.58;102318.66;5050063;28;20200;-73
2022/01/28 05:33:36;;;;;;;17.97;3.53;;;;;;;4.63;75.54;102330.50;5049683;28;20182;-73
2022/01/28 05:36:02;;;;;;;20.13;4.53;;;;;;;4.64;74.42;102333.88;5049931;28;20277;-73
2022/01/28 05:38:27;;;;;;;22.67;4.10;;;;;;;4.72;73.89;102335.28;5049478;28;20284;-73
2022/01/28 05:40:52;;;;;;;19.17;3.40;;;;;;;4.69;74.02;102337.63;5048370;28;20213;-73
2022/01/28 05:43:18;;;;;;;18.33;4.30;;;;;;;4.63;74.21;102348.25;5049675;28;20651;-73
2022/01/28 05:45:43;;;;;;;24.00;4.03;;;;;;;4.55;74.12;102344.31;5049606;28;20665;-73
2022/01/28 05:48:08;;;;;;;25.73;4.77;;;;;;;4.64;72.96;102349.09;5049311;28;20198;-73
2022/01/28 05:50:34;;;;;;;23.13;3.70;;;;;;;4.57;72.80;102364.72;5049517;28;20190;-73
2022/01/28 05:53:03;;;;;;;20.40;3.43;;;;;;;4.52;73.26;102356.78;5049683;28;20552;-73
2022/01/28 05:55:28;;;;;;;21.17;4.20;;;;;;;4.50;73.11;102368.47;5048118;28;20557;-73
2022/01/28 05:57:54;;;;;;;21.77;4.10;;;;;;;4.49;73.10;102360.75;5048153;28;20192;-73
2022/01/28 06:00:19;;;;;;;19.60;3.60;;;;;;;4.48;72.95;102364.09;5031454;28;20217;-73
2022/01/28 06:02:45;;;;;;;18.97;3.60;;;;;;;4.44;72.84;102373.16;5049396;28;20770;-73
2022/01/28 06:05:11;;;;;;;18.30;3.93;;;;;;;4.45;72.49;102371.47;5048959;28;20193;-73
2022/01/28 06:07:41;;;;;;;26.20;4.53;;;;;;;4.44;72.53;102385.81;5049421;28;20202;-73
2022/01/28 06:10:09;;;;;;;24.80;4.43;;;;;;;4.38;73.45;102399.75;5047662;28;20705;-73
2022/01/28 06:12:42;;;;;;;19.30;4.73;;;;;;;4.30;73.53;102400.84;5047926;28;20720;-73
2022/01/28 06:15:09;;;;;;;17.30;3.87;;;;;;;4.28;73.60;102410.03;5049341;28;20845;-73
2022/01/28 06:17:34;;;;;;;16.13;3.60;;;;;;;4.21;74.55;102408.72;5049362;28;20834;-74
2022/01/28 06:20:01;;;;;;;23.37;4.33;;;;;;;4.19;74.80;102415.31;5048922;28;20217;-72
2022/01/28 06:22:26;;;;;;;16.33;4.00;;;;;;;4.29;73.52;102421.91;5048208;28;20185;-73
2022/01/28 06:24:52;;;;;;;18.83;3.87;;;;;;;4.24;73.62;102421.59;5049329;28;20185;-73
2022/01/28 06:27:17;;;;;;;20.90;4.73;;;;;;;4.26;73.25;102432.72;5049349;28;20204;-74
2022/01/28 06:29:43;;;;;;;21.63;4.43;;;;;;;4.27;72.88;102426.88;5048923;28;20225;-73
2022/01/28 06:32:11;;;;;;;24.37;4.27;;;;;;;4.27;72.19;102439.56;5049410;28;20190;-73
2022/01/28 06:34:38;;;;;;;25.23;4.07;;;;;;;4.22;72.21;102452.66;5049332;28;20174;-73
2022/01/28 06:37:04;;;;;;;17.27;3.63;;;;;;;4.22;71.64;102450.13;5049323;28;20182;-73
2022/01/28 06:39:32;;;;;;;13.33;3.37;;;;;;;4.20;71.91;102441.56;5052459;28;20217;-73
2022/01/28 06:41:57;;;;;;;21.23;3.63;;;;;;;4.19;72.31;102452.47;5053006;28;20178;-73
2022/01/28 06:44:23;;;;;;;24.70;5.00;;;;;;;4.14;72.36;102457.19;5051768;28;20686;-73
2022/01/28 06:46:48;;;;;;;22.43;5.07;;;;;;;4.15;72.12;102463.16;5052906;28;20194;-73
2022/01/28 06:49:14;;;;;;;16.73;4.07;;;;;;;4.15;71.95;102469.09;5052629;28;20194;-73
2022/01/28 06:51:39;;;;;;;22.00;4.27;;;;;;;4.20;71.49;102479.56;5052790;28;20301;-73
2022/01/28 06:54:04;;;;;;;19.93;4.37;;;;;;;4.23;70.81;102475.59;5052637;28;20565;-73
2022/01/28 06:56:30;;;;;;;21.73;4.50;;;;;;;4.26;70.96;102475.81;5052628;28;20243;-74
2022/01/28 06:58:55;;;;;;;20.33;4.40;;;;;;;4.37;68.87;102481.66;5052630;28;20201;-73
2022/01/28 07:01:20;;;;;;;20.97;3.83;;;;;;;4.34;69.67;102494.09;5051349;28;20288;-73
2022/01/28 07:03:46;;;;;;;19.83;4.67;;;;;;;4.30;69.74;102485.41;5051222;28;20194;-73
2022/01/28 07:06:12;;;;;;;20.17;4.43;;;;;;;4.35;68.76;102479.00;5034247;28;20205;-73
2022/01/28 07:08:38;;;;;;;21.37;4.97;;;;;;;4.39;69.19;102502.91;5050814;28;20336;-73
2022/01/28 07:11:03;;;;;;;16.63;3.93;;;;;;;4.37;68.62;102517.16;5052300;28;20698;-73
2022/01/28 07:13:29;;;;;;;18.37;4.13;;;;;;;4.42;68.17;102531.03;5052245;28;20273;-73
2022/01/28 07:15:54;;;;;;;17.93;3.47;;;;;;;4.41;68.14;102535.19;5052369;28;20205;-73
2022/01/28 07:18:20;;;;;;;20.37;4.00;;;;;;;4.48;67.48;102537.41;5050767;28;20643;-73
2022/01/28 07:20:45;;;;;;;24.30;4.33;;;;;;;4.42;68.83;102544.56;5052235;28;20209;-73
2022/01/28 07:23:10;;;;;;;19.60;4.43;;;;;;;4.41;68.90;102542.81;5052206;28;20193;-73
2022/01/28 07:25:36;;;;;;;18.13;3.47;;;;;;;4.44;68.46;102540.50;5052204;28;20553;-73
2022/01/28 07:28:01;;;;;;;22.23;4.10;;;;;;;4.49;67.60;102540.81;5051789;28;20186;-73
2022/01/28 07:30:26;;;;;;;21.03;3.40;;;;;;;4.46;67.77;102545.69;5052103;28;20315;-73
2022/01/28 07:32:52;;;;;;;15.13;3.77;;;;;;;4.45;68.37;102559.13;5052061;28;20189;-73
2022/01/28 07:35:18;;;;;;;17.50;3.33;;;;;;;4.48;67.55;102567.84;5052148;28;20223;-73
2022/01/28 07:37:43;;;;;;;21.87;3.97;;;;;;;4.46;68.13;102571.91;5052070;28;20220;-73
2022/01/28 07:40:09;;;;;;;22.67;4.00;;;;;;;4.44;69.04;102577.66;5051692;28;20696;-73
2022/01/28 07:42:36;;;;;;;21.53;4.43;;;;;;;4.47;68.25;102583.81;5050611;28;20193;-73
2022/01/28 07:45:04;;;;;;;22.07;3.97;;;;;;;4.50;68.49;102573.91;5052159;28;20611;-73
2022/01/28 07:47:29;;;;;;;18.37;4.57;;;;;;;4.49;68.67;102594.97;5051932;28;20192;-73
2022/01/28 07:49:54;;;;;;;23.50;4.83;;;;;;;4.57;68.09;102591.31;5050159;28;20206;-73
2022/01/28 07:52:20;;;;;;;18.17;4.03;;;;;;;4.56;68.28;102603.88;5050572;28;20189;-73
2022/01/28 07:54:49;;;;;;;20.03;3.83;;;;;;;4.52;69.18;102590.09;5051631;28;20239;-73
2022/01/28 07:57:14;;;;;;;19.50;4.80;;;;;;;4.55;69.08;102615.69;5050211;28;20198;-73
2022/01/28 07:59:40;;;;;;;18.17;3.97;;;;;;;4.58;69.01;102623.50;5051420;28;20722;-73
2022/01/28 08:02:05;;;;;;;19.30;3.80;;;;;;;4.64;69.01;102623.94;5051547;28;20289;-73
2022/01/28 08:04:31;;;;;;;18.67;4.17;;;;;;;4.67;69.76;102626.72;5051401;28;20228;-73
2022/01/28 08:06:56;;;;;;;30.77;4.60;;;;;;;4.71;69.98;102630.34;5049663;28;20195;-73
2022/01/28 08:09:21;;;;;;;26.97;4.63;;;;;;;4.73;69.38;102636.38;5050894;28;20205;-73
2022/01/28 08:11:47;;;;;;;22.80;4.67;;;;;;;4.75;69.12;102630.66;5051555;28;20193;-73
2022/01/28 08:14:13;;;;;;;23.80;5.00;;;;;;;4.79;68.90;102645.31;5051496;28;20846;-74
2022/01/28 08:16:39;;;;;;;29.07;4.50;;;;;;;4.81;70.26;102646.34;5051246;28;20668;-73
2022/01/28 08:19:05;;;;;;;23.43;4.43;;;;;;;4.83;70.25;102654.91;5050712;28;20221;-73
2022/01/28 08:21:30;;;;;;;23.63;5.40;;;;;;;4.84;70.05;102669.38;5050037;28;20235;-73
2022/01/28 08:23:55;;;;;;;21.93;4.73;;;;;;;4.87;69.80;102663.63;5050953;28;20216;-73
2022/01/28 08:26:21;;;;;;;23.47;4.80;;;;;;;4.90;70.29;102674.00;5051005;28;20185;-73
2022/01/28 08:28:47;;;;;;;21.20;5.60;;;;;;;4.92;70.80;102678.41;5050770;28;20583;-73
2022/01/28 08:31:14;;;;;;;24.00;4.80;;;;;;;4.95;70.30;102681.19;5050902;28;20682;-73
2022/01/28 08:33:39;;;;;;;24.47;4.50;;;;;;;5.03;70.14;102685.16;5049532;28;20190;-73
2022/01/28 08:36:05;;;;;;;27.73;6.20;;;;;;;5.08;69.90;102688.00;5050907;28;20236;-73
2022/01/28 08:38:36;;;;;;;22.87;5.23;;;;;;;5.14;70.53;102696.03;5050474;28;20224;-73
2022/01/28 08:41:03;;;;;;;31.70;5.03;;;;;;;5.19;70.53;102704.84;5050772;28;20690;-72
2022/01/28 08:43:28;;;;;;;28.73;4.93;;;;;;;5.21;70.56;102711.81;5050770;28;20269;-73
2022/01/28 08:45:54;;;;;;;21.13;5.17;;;;;;;5.25;70.29;102718.88;5050811;28;20694;-73
2022/01/28 08:48:19;;;;;;;21.23;5.00;;;;;;;5.31;71.05;102728.59;5049085;28;20192;-73
2022/01/28 08:50:45;;;;;;;28.57;5.37;;;;;;;5.35;70.84;102731.44;5032819;28;20208;-73
2022/01/28 08:53:11;;;;;;;25.43;5.40;;;;;;;5.46;70.05;102732.19;5050608;28;20549;-73
2022/01/28 08:55:38;;;;;;;26.90;5.37;;;;;;;5.53;70.97;102734.41;5049468;28;20225;-73
2022/01/28 08:58:07;;;;;;;29.90;6.13;;;;;;;5.61;70.32;102738.38;5050655;28;20182;-73
2022/01/28 09:00:32;;;;;;;28.03;5.33;;;;;;;5.73;70.15;102739.19;5050429;28;20247;-73
2022/01/28 09:02:58;;;;;;;28.43;5.47;;;;;;;5.85;70.11;102748.56;5049651;28;20267;-73
2022/01/28 09:05:23;;;;;;;26.50;5.23;;;;;;;5.93;68.83;102749.97;5050224;28;20198;-73
2022/01/28 09:07:49;;;;;;;21.83;5.80;;;;;;;5.99;68.43;102754.63;5049108;28;20240;-73
2022/01/28 09:10:18;;;;;;;25.13;4.60;;;;;;;6.17;67.90;102755.88;5048789;28;20675;-73
2022/01/28 09:15:38;;;;;;;30.70;5.20;;;;;;;6.30;68.05;102772.03;5050145;28;20221;-73
2022/01/28 09:18:04;;;;;;;24.17;5.33;;;;;;;6.46;66.85;102769.75;5049823;28;20201;-73
2022/01/28 09:20:32;;;;;;;24.87;4.60;;;;;;;6.55;67.04;102770.38;5049862;28;20217;-73
2022/01/28 09:22:58;;;;;;;32.27;5.63;;;;;;;6.69;65.78;102782.34;5048632;28;20185;-73
2022/01/28 09:25:24;;;;;;;23.37;5.27;;;;;;;6.88;65.73;102782.75;5048739;28;20647;-73
2022/01/28 09:27:49;;;;;;;19.87;3.93;;;;;;;7.08;64.39;102778.91;5049765;28;20185;-73
2022/01/28 09:30:14;;;;;;;24.70;4.47;;;;;;;9.06;58.74;102783.50;5049500;28;20198;-73
2022/01/28 09:32:40;;;;;;;24.73;5.87;;;;;;;11.59;51.68;102772.88;5049899;28;20714;-73
2022/01/28 09:35:06;;;;;;;23.03;5.97;;;;;;;11.06;50.90;102792.56;5049685;28;20244;-73
2022/01/28 09:37:31;;;;;;;18.17;4.90;;;;;;;8.13;59.11;102799.25;5048344;28;20201;-73
2022/01/28 09:39:57;;;;;;;23.10;4.87;;;;;;;7.63;61.50;102810.56;5049347;28;20316;-73
2022/01/28 09:42:27;;;;;;;19.70;4.73;;;;;;;9.48;57.44;102807.22;5049736;28;20204;-73
2022/01/28 09:44:54;;;;;;;20.27;5.47;;;;;;;14.09;44.31;102780.03;5049792;28;20189;-73
2022/01/28 09:47:21;;;;;;;20.60;4.47;;;;;;;14.52;41.79;102790.19;5049576;28;20189;-73
2022/01/28 09:49:46;;;;;;;19.97;5.13;;;;;;;15.99;39.46;102776.88;5047898;28;20638;-73
2022/01/28 09:52:12;;;;;;;17.70;4.67;;;;;;;15.70;38.96;102783.78;5049374;28;20277;-73
2022/01/28 09:54:38;;;;;;;11.83;3.90;;;;;;;16.48;37.99;102785.19;5049497;28;20195;-73
2022/01/28 09:57:06;;;;;;;17.80;4.83;;;;;;;17.06;36.74;102788.41;5048248;28;20190;-74
2022/01/28 09:59:32;;;;;;;18.00;4.63;;;;;;;17.74;35.09;102790.88;5049137;28;20293;-74
2022/01/28 10:01:58;;;;;;;13.90;4.67;;;;;;;18.45;34.53;102785.44;5049511;28;20181;-73
2022/01/28 10:04:23;;;;;;;16.37;4.90;;;;;;;17.73;34.63;102783.97;5049559;28;20189;-73
2022/01/28 10:06:49;;;;;;;19.23;4.50;;;;;;;17.72;34.47;102784.78;5049049;28;20181;-73
2022/01/28 10:09:19;;;;;;;19.63;5.20;;;;;;;19.33;33.15;102786.09;5047902;28;20212;-74
2022/01/28 10:11:48;;;;;;;15.47;4.87;;;;;;;18.07;34.14;102789.88;5047942;28;20859;-74
2022/01/28 10:14:17;;;;;;;18.27;5.23;;;;;;;17.69;34.48;102792.50;5052984;28;20204;-74
2022/01/28 10:16:53;;;;;;;12.63;4.77;;;;;;;18.10;34.39;102800.28;5053552;28;20205;-73
2022/01/28 10:19:18;;;;;;;13.30;4.27;;;;;;;19.81;32.10;102803.25;5052969;28;20224;-73
2022/01/28 10:21:45;;;;;;;16.10;4.77;;;;;;;18.39;32.99;102808.69;5053319;28;20280;-73
2022/01/28 10:24:17;;;;;;;17.00;4.37;;;;;;;18.75;32.51;102798.97;5053316;28;20224;-74
2022/01/28 10:26:44;;;;;;;14.93;4.80;;;;;;;19.02;32.35;102797.72;5053357;28;20185;-74
2022/01/28 10:29:19;;;;;;;15.90;4.73;;;;;;;20.14;31.56;102795.03;5052669;28;20265;-73
2022/01/28 10:31:57;;;;;;;14.97;4.30;;;;;;;19.82;30.89;102805.03;5052000;28;20220;-73
2022/01/28 10:34:44;;;;;;;15.50;4.67;;;;;;;20.79;30.09;102800.06;5053063;28;20189;-73
2022/01/28 10:37:12;;;;;;;16.27;5.67;;;;;;;21.16;29.39;102806.47;5051663;28;20166;-73
2022/01/28 10:39:51;;;;;;;17.77;4.97;;;;;;;21.96;27.81;102800.91;5052548;28;20283;-74
2022/01/28 10:42:25;;;;;;;13.23;4.87;;;;;;;22.13;28.66;102804.47;5052974;28;20178;-74
2022/01/28 10:45:09;;;;;;;13.30;4.30;;;;;;;21.15;28.88;102799.53;5052924;28;20181;-74
2022/01/28 10:47:41;;;;;;;15.97;4.57;;;;;;;21.10;28.94;102815.13;5052873;28;20669;-74
2022/01/28 10:50:26;;;;;;;12.67;4.33;;;;;;;21.92;28.33;102808.75;5052486;28;20209;-74
2022/01/28 10:53:00;;;;;;;16.30;4.70;;;;;;;21.83;27.83;102811.31;5053187;28;20189;-74
2022/01/28 10:55:28;;;;;;;14.33;4.40;;;;;;;21.70;28.42;102810.34;5051589;28;20204;-74
2022/01/28 10:58:01;;;;;;;13.00;4.33;;;;;;;20.39;29.58;102823.97;5052481;28;20194;-74
2022/01/28 11:00:32;;;;;;;13.67;4.27;;;;;;;15.58;38.48;102849.69;5052339;28;21014;-74
2022/01/28 11:02:59;;;;;;;14.90;4.80;;;;;;;14.60;40.65;102855.78;5051403;28;20240;-73
2022/01/28 11:05:28;;;;;;;16.07;4.70;;;;;;;14.79;41.71;102850.44;5050975;28;20200;-73
2022/01/28 11:07:53;;;;;;;17.43;4.57;;;;;;;14.50;41.49;102857.16;5052379;28;20200;-73
2022/01/28 11:10:19;;;;;;;17.47;4.27;;;;;;;14.12;42.12;102860.00;5051265;28;20209;-73
2022/01/28 11:12:45;;;;;;;19.47;4.40;;;;;;;14.11;42.44;102865.09;5052558;28;20193;-73
2022/01/28 11:15:10;;;;;;;18.07;4.87;;;;;;;14.57;41.94;102863.41;5052817;28;20190;-73
2022/01/28 11:17:36;;;;;;;18.70;4.37;;;;;;;14.56;42.49;102877.13;5052655;28;20595;-73
2022/01/28 11:20:03;;;;;;;18.70;4.63;;;;;;;14.61;41.25;102879.06;5051875;28;20765;-74
2022/01/28 11:22:55;;;;;;;15.60;4.63;;;;;;;14.22;41.78;102874.16;5052602;28;20312;-74
2022/01/28 11:25:43;;;;;;;12.50;4.50;;;;;;;14.30;41.19;102878.78;5051894;28;20255;-74
2022/01/28 11:28:12;;;;;;;14.30;4.20;;;;;;;14.94;39.95;102881.94;5050439;28;20198;-73
2022/01/28 11:30:51;;;;;;;14.60;4.47;;;;;;;14.63;42.65;102881.66;5052659;28;20196;-75
2022/01/28 11:33:18;;;;;;;15.03;4.33;;;;;;;14.51;40.77;102886.41;5051089;28;20190;-73
2022/01/28 11:35:49;;;;;;;13.80;5.00;;;;;;;14.68;40.88;102895.63;5052298;28;20277;-73
2022/01/28 11:38:26;;;;;;;17.40;4.93;;;;;;;15.42;39.84;102892.22;5052089;28;20201;-73
2022/01/28 11:40:55;;;;;;;17.57;5.70;;;;;;;15.71;39.38;102906.94;5052021;28;20230;-74
2022/01/28 11:43:23;;;;;;;16.47;6.17;;;;;;;15.88;38.99;102895.44;5051779;28;20427;-73
2022/01/28 11:46:20;;;;;;;14.43;4.70;;;;;;;15.60;38.98;102903.16;5051654;28;20194;-73
2022/01/28 11:48:51;;;;;;;17.63;4.97;;;;;;;15.63;38.97;102900.66;5050121;28;20289;-73
2022/01/28 11:51:35;;;;;;;14.63;5.53;;;;;;;15.37;39.24;102905.81;5051716;28;20204;-73
2022/01/28 11:54:07;;;;;;;13.93;5.17;;;;;;;15.92;38.34;102912.78;5051621;28;20181;-73
2022/01/28 11:56:36;;;;;;;13.43;5.33;;;;;;;16.11;37.64;102906.47;5051789;28;20196;-73
2022/01/28 11:59:09;;;;;;;13.87;5.27;;;;;;;16.01;38.46;102915.66;5051288;28;20229;-74
2022/01/28 12:01:40;;;;;;;16.53;5.40;;;;;;;16.60;37.91;102925.19;5051498;28;20204;-73
2022/01/28 12:04:26;;;;;;;15.23;5.00;;;;;;;16.74;37.35;102919.59;5050221;28;20661;-74
2022/01/28 12:07:13;;;;;;;13.77;5.13;;;;;;;16.35;37.65;102931.31;5037006;28;20217;-74
2022/01/28 12:09:41;;;;;;;12.83;4.00;;;;;;;16.05;38.30;102932.13;5050994;28;20732;-74
2022/01/28 12:12:09;;;;;;;13.63;4.00;;;;;;;14.92;39.31;102932.59;5051287;28;20674;-73
2022/01/28 12:14:50;;;;;;;16.73;4.43;;;;;;;15.73;39.08;102933.72;5051240;28;20258;-73
2022/01/28 12:17:31;;;;;;;11.27;4.13;;;;;;;15.43;39.03;102940.44;5051377;28;20189;-73
2022/01/28 12:20:15;;;;;;;10.30;4.27;;;;;;;17.10;36.69;102930.03;5050738;28;20316;-74
2022/01/28 12:22:58;;;;;;;14.77;4.50;;;;;;;17.81;36.29;102923.25;5051470;28;20201;-74
2022/01/28 12:25:36;;;;;;;15.00;4.77;;;;;;;17.55;36.64;102929.50;5050156;28;20181;-74
2022/01/28 12:28:11;;;;;;;15.13;4.30;;;;;;;17.16;37.28;102923.31;5051057;28;20734;-74
2022/01/28 12:30:37;;;;;;;14.40;5.47;;;;;;;16.03;39.68;102934.66;5050915;28;20165;-73
2022/01/28 12:33:03;;;;;;;15.87;4.67;;;;;;;17.30;37.55;102929.72;5049727;28;20186;-73
2022/01/28 12:35:28;;;;;;;14.20;5.20;;;;;;;17.72;36.42;102920.44;5050005;28;20677;-74
2022/01/28 12:37:59;;;;;;;15.40;4.90;;;;;;;17.62;37.18;102921.06;5050881;28;20633;-74
2022/01/28 12:40:35;;;;;;;15.00;5.00;;;;;;;17.08;37.48;102918.78;5050672;28;20316;-74
2022/01/28 12:43:01;;;;;;;14.50;5.37;;;;;;;17.03;37.72;102918.66;5049631;28;20580;-73
2022/01/28 12:45:27;;;;;;;19.23;5.17;;;;;;;16.96;37.80;102921.91;5050816;28;20207;-74
2022/01/28 12:47:52;;;;;;;15.47;4.73;;;;;;;16.74;38.32;102917.00;5049142;28;20602;-73